Time;durP1;ratioP1;P1;durP2;ratioP2;P2;SDS_P1;SDS_P2;PMS_P1;PMS_P2;Temp;Humidity;BMP_temperature;BMP_pressure;BME280_temperature;BME280_humidity;BME280_pressure;Samples;Min_cycle;Max_cycle;Signal;HPM_P1;HPM_P2
2023/03/05 00:01:18;;;;;;;3.60;2.03;;;22.10;46.30;;;;;;6257391;27;80588;-51
2023/03/05 00:04:20;;;;;;;4.15;2.17;;;22.20;46.40;;;;;;6263384;27;80928;-47
2023/03/05 00:07:20;;;;;;;4.50;2.45;;;22.10;46.10;;;;;;6264274;27;81490;-47
2023/03/05 00:10:21;;;;;;;2.10;1.85;;;22.20;46.10;;;;;;6254231;27;80839;-48
2023/03/05 00:13:21;;;;;;;3.13;2.13;;;22.20;46.50;;;;;;6223266;27;1304186;-50
2023/03/05 00:16:25;;;;;;;4.47;2.72;;;22.20;46.80;;;;;;6272020;27;80930;-48
2023/03/05 00:19:25;;;;;;;3.25;2.22;;;22.10;46.00;;;;;;6264926;27;81348;-51
2023/03/05 00:22:26;;;;;;;4.35;2.03;;;22.10;46.60;;;;;;6274062;27;80688;-49
2023/03/05 00:25:27;;;;;;;5.35;2.30;;;22.10;46.30;;;;;;6259834;27;80641;-62
2023/03/05 00:28:27;;;;;;;2.83;2.00;;;22.10;46.40;;;;;;6267120;27;81009;-62
2023/03/05 00:31:31;;;;;;;2.95;2.00;;;22.10;46.00;;;;;;6271080;27;80399;-62
2023/03/05 00:34:31;;;;;;;5.05;2.42;;;22.10;46.50;;;;;;6272323;27;80300;-61
2023/03/05 00:37:32;;;;;;;3.85;2.22;;;22.10;45.80;;;;;;6274440;27;81844;-62
2023/03/05 00:40:32;;;;;;;3.47;2.40;;;22.10;46.10;;;;;;6269270;27;81892;-61
2023/03/05 00:43:33;;;;;;;4.00;2.25;;;22.10;46.30;;;;;;6247059;27;83277;-62
2023/03/05 00:46:34;;;;;;;4.88;2.38;;;22.10;46.20;;;;;;6253818;27;83092;-60
2023/03/05 00:49:34;;;;;;;4.35;2.42;;;22.10;46.80;;;;;;6263842;27;83646;-60
2023/03/05 00:52:35;;;;;;;4.65;2.15;;;22.10;46.20;;;;;;6246806;27;83007;-61
2023/03/05 00:55:36;;;;;;;3.10;2.05;;;22.10;46.30;;;;;;6232109;27;81714;-61
2023/03/05 00:58:37;;;;;;;4.40;2.35;;;22.10;46.50;;;;;;6255374;27;81630;-63
2023/03/05 01:01:37;;;;;;;4.28;2.58;;;22.10;46.40;;;;;;6275032;27;80285;-66
2023/03/05 01:04:38;;;;;;;5.00;2.65;;;22.10;46.20;;;;;;6266600;27;80797;-65
2023/03/05 01:07:39;;;;;;;4.43;2.30;;;22.10;46.20;;;;;;6271336;27;80293;-67
2023/03/05 01:10:39;;;;;;;4.30;2.70;;;22.10;46.00;;;;;;6263702;27;80471;-67
2023/03/05 01:13:40;;;;;;;3.60;2.20;;;22.10;45.90;;;;;;6257764;27;82999;-66
2023/03/05 01:16:40;;;;;;;2.40;1.77;;;22.10;45.80;;;;;;6257058;27;81642;-63
2023/03/05 01:19:41;;;;;;;3.95;2.28;;;22.10;46.20;;;;;;6280126;27;81490;-61
2023/03/05 01:22:42;;;;;;;6.22;2.70;;;22.10;46.00;;;;;;6279092;27;81473;-61
2023/03/05 01:25:42;;;;;;;3.78;2.35;;;22.10;46.40;;;;;;6266838;27;81774;-61
2023/03/05 01:28:43;;;;;;;3.28;2.42;;;22.10;46.10;;;;;;6279302;27;80179;-62
2023/03/05 01:31:43;;;;;;;3.90;2.22;;;22.00;46.40;;;;;;6279061;27;80370;-62
2023/03/05 01:34:44;;;;;;;4.30;2.60;;;22.10;45.90;;;;;;6279421;27;80939;-61
2023/03/05 01:37:44;;;;;;;3.58;2.25;;;22.10;46.40;;;;;;6279181;27;80306;-60
2023/03/05 01:40:45;;;;;;;5.00;2.97;;;22.00;46.20;;;;;;6279398;27;81227;-61
2023/03/05 01:43:45;;;;;;;4.55;2.70;;;22.00;46.30;;;;;;6279050;27;80551;-61
2023/03/05 01:46:46;;;;;;;4.25;2.53;;;22.00;46.10;;;;;;6264213;27;80580;-61
2023/03/05 01:49:46;;;;;;;5.25;2.63;;;22.00;46.00;;;;;;6260511;27;83590;-61
2023/03/05 01:52:47;;;;;;;4.90;2.38;;;22.00;46.10;;;;;;6280213;27;80856;-61
2023/03/05 01:55:47;;;;;;;4.47;2.60;;;22.00;45.80;;;;;;6253912;27;86595;-61
2023/03/05 01:58:48;;;;;;;5.53;2.50;;;22.10;46.00;;;;;;6258300;27;81633;-62
2023/03/05 02:01:48;;;;;;;5.13;2.50;;;22.00;45.70;;;;;;6248355;28;81797;-61
2023/03/05 02:04:49;;;;;;;3.60;2.20;;;22.00;45.70;;;;;;6277881;27;80264;-61
2023/03/05 02:07:50;;;;;;;3.95;2.45;;;22.00;45.90;;;;;;6268820;27;80743;-61
2023/03/05 02:10:50;;;;;;;3.75;2.38;;;22.10;45.80;;;;;;6264193;27;80855;-61
2023/03/05 02:13:51;;;;;;;4.43;2.47;;;22.00;45.50;;;;;;6237182;27;82499;-62
2023/03/05 02:16:52;;;;;;;5.63;2.60;;;22.00;44.90;;;;;;6250899;27;81763;-61
2023/03/05 02:19:52;;;;;;;3.58;2.22;;;22.00;44.90;;;;;;6237001;28;81656;-61
2023/03/05 02:22:53;;;;;;;3.38;2.20;;;22.00;44.20;;;;;;6251866;27;80567;-61
2023/03/05 02:25:53;;;;;;;4.30;2.50;;;22.00;44.40;;;;;;6226253;28;80920;-62
2023/03/05 02:28:54;;;;;;;3.78;2.10;;;22.00;44.30;;;;;;6248761;27;82230;-61
2023/03/05 02:31:54;;;;;;;5.00;2.35;;;22.00;44.50;;;;;;6239610;27;80479;-62
2023/03/05 02:34:55;;;;;;;2.88;1.98;;;22.00;44.20;;;;;;6253599;27;81019;-62
2023/03/05 02:37:55;;;;;;;5.60;2.72;;;22.00;44.00;;;;;;6251491;28;83475;-61
2023/03/05 02:40:56;;;;;;;5.45;2.70;;;22.00;43.90;;;;;;6241077;27;80641;-62
2023/03/05 02:43:56;;;;;;;3.90;2.33;;;22.00;43.80;;;;;;6250119;27;82922;-63
2023/03/05 02:46:57;;;;;;;3.58;2.30;;;22.00;43.80;;;;;;6236973;27;80213;-62
2023/03/05 02:49:58;;;;;;;4.32;2.42;;;22.00;43.90;;;;;;6245412;28;83280;-64
2023/03/05 02:52:59;;;;;;;5.25;2.35;;;22.00;43.60;;;;;;6250869;28;82834;-65
2023/03/05 02:56:00;;;;;;;4.65;2.00;;;22.00;43.80;;;;;;6250617;27;80227;-65
2023/03/05 02:59:00;;;;;;;4.20;2.15;;;22.00;43.40;;;;;;6235899;27;82961;-66
2023/03/05 03:02:01;;;;;;;3.22;1.90;;;22.00;43.70;;;;;;6256645;27;83492;-66
2023/03/05 03:05:02;;;;;;;4.30;1.92;;;22.00;43.50;;;;;;6252965;27;80547;-65
2023/03/05 03:08:02;;;;;;;4.88;2.15;;;22.00;43.60;;;;;;6248269;27;81050;-65
2023/03/05 03:11:03;;;;;;;4.13;2.25;;;22.00;43.40;;;;;;6241819;27;80645;-65
2023/03/05 03:14:03;;;;;;;4.88;2.42;;;22.00;43.40;;;;;;6274578;27;81735;-65
2023/03/05 03:17:04;;;;;;;4.82;2.20;;;22.00;43.10;;;;;;6263443;27;80541;-63
2023/03/05 03:20:04;;;;;;;3.13;2.10;;;22.00;43.10;;;;;;6277249;27;81720;-63
2023/03/05 03:23:05;;;;;;;3.88;2.30;;;21.90;42.50;;;;;;6277332;27;80977;-63
2023/03/05 03:26:06;;;;;;;3.00;1.70;;;21.90;42.90;;;;;;6270859;27;80908;-63
2023/03/05 03:29:06;;;;;;;3.03;1.67;;;21.90;42.80;;;;;;6270402;27;80783;-64
2023/03/05 03:32:07;;;;;;;3.75;2.17;;;22.00;42.80;;;;;;6276859;27;80672;-63
2023/03/05 03:35:07;;;;;;;3.13;1.80;;;22.00;42.70;;;;;;6264421;27;81481;-63
2023/03/05 03:38:08;;;;;;;3.38;1.67;;;21.90;42.50;;;;;;6265510;27;81055;-63
2023/03/05 03:41:08;;;;;;;3.55;2.13;;;22.00;42.80;;;;;;6278353;27;80614;-63
2023/03/05 03:44:09;;;;;;;3.60;1.92;;;22.00;42.60;;;;;;6269776;27;80589;-63
2023/03/05 03:47:10;;;;;;;2.70;1.40;;;21.90;42.80;;;;;;6277327;27;81089;-62
2023/03/05 03:50:10;;;;;;;3.85;1.50;;;21.90;42.60;;;;;;6277587;27;80333;-65
2023/03/05 03:53:13;;;;;;;3.70;1.92;;;21.90;42.60;;;;;;6261961;27;80284;-63
2023/03/05 03:56:13;;;;;;;3.28;1.55;;;22.00;42.60;;;;;;6266672;27;81678;-63
2023/03/05 03:59:14;;;;;;;2.70;1.67;;;22.00;42.70;;;;;;6267734;27;80537;-63
2023/03/05 04:02:14;;;;;;;3.55;2.05;;;21.90;42.20;;;;;;6267546;27;80406;-63
2023/03/05 04:05:15;;;;;;;4.07;2.28;;;21.90;42.10;;;;;;6266331;27;82867;-65
2023/03/05 04:08:15;;;;;;;2.70;1.90;;;21.90;42.20;;;;;;6270869;27;80493;-65
2023/03/05 04:11:18;;;;;;;5.30;2.63;;;21.90;42.30;;;;;;6276285;27;81220;-64
2023/03/05 04:14:18;;;;;;;4.72;2.40;;;21.90;41.90;;;;;;6271159;27;80365;-66
2023/03/05 04:17:19;;;;;;;5.68;2.33;;;21.90;41.70;;;;;;6264783;27;80505;-65
2023/03/05 04:20:19;;;;;;;4.68;2.40;;;22.00;42.50;;;;;;6265042;27;80570;-64
2023/03/05 04:23:20;;;;;;;5.45;2.97;;;22.00;41.00;;;;;;6277116;27;80330;-63
2023/03/05 04:26:20;;;;;;;3.30;2.03;;;22.10;40.90;;;;;;6268254;27;80711;-66
2023/03/05 04:29:21;;;;;;;3.55;2.25;;;22.10;40.40;;;;;;6272270;27;81400;-64
2023/03/05 04:32:24;;;;;;;6.30;3.00;;;22.20;40.30;;;;;;6275451;27;80133;-63
2023/03/05 04:35:25;;;;;;;5.18;3.00;;;22.30;40.00;;;;;;6273223;27;80946;-64
2023/03/05 04:38:25;;;;;;;4.80;2.63;;;22.30;39.30;;;;;;6265338;27;81621;-64
2023/03/05 04:41:26;;;;;;;5.55;3.20;;;22.40;39.10;;;;;;6282747;27;80912;-65
2023/03/05 04:44:27;;;;;;;4.65;2.67;;;22.40;39.00;;;;;;6274445;27;80675;-66
2023/03/05 04:47:27;;;;;;;6.43;2.75;;;22.50;39.00;;;;;;6255959;27;81637;-66
2023/03/05 04:50:28;;;;;;;4.20;2.55;;;22.50;39.00;;;;;;6270441;27;80346;-65
2023/03/05 04:53:28;;;;;;;3.90;2.67;;;22.60;38.60;;;;;;6273372;27;80805;-65
2023/03/05 04:56:29;;;;;;;7.05;3.08;;;22.60;38.50;;;;;;6270923;27;80539;-66
2023/03/05 04:59:29;;;;;;;8.40;3.30;;;22.60;38.30;;;;;;6272027;27;83898;-65
2023/03/05 05:02:30;;;;;;;4.85;3.13;;;22.60;38.20;;;;;;6266701;27;80324;-64
2023/03/05 05:05:30;;;;;;;6.57;3.50;;;22.70;38.30;;;;;;6279679;27;82792;-63
2023/03/05 05:08:31;;;;;;;7.38;3.63;;;22.70;38.00;;;;;;6268089;27;82724;-67
2023/03/05 05:11:31;;;;;;;5.05;3.05;;;22.70;38.40;;;;;;6272703;27;80713;-65
2023/03/05 05:14:32;;;;;;;6.00;3.45;;;22.70;38.20;;;;;;6280510;27;80421;-65
2023/03/05 05:17:32;;;;;;;5.38;3.25;;;22.70;38.10;;;;;;6279468;27;81325;-65
2023/03/05 05:20:33;;;;;;;6.13;3.78;;;22.70;38.10;;;;;;6271287;27;80962;-64
2023/03/05 05:23:34;;;;;;;7.90;3.20;;;22.70;37.90;;;;;;6280345;27;80618;-67
2023/03/05 05:26:34;;;;;;;5.38;2.80;;;22.70;37.90;;;;;;6279733;27;80420;-68
2023/03/05 05:29:35;;;;;;;5.57;3.17;;;22.70;37.70;;;;;;6279933;27;80221;-65
2023/03/05 05:32:35;;;;;;;7.15;3.13;;;22.80;37.70;;;;;;6280237;27;80686;-66
2023/03/05 05:35:36;;;;;;;7.28;3.47;;;22.80;37.90;;;;;;6273691;27;80517;-67
2023/03/05 05:38:37;;;;;;;7.18;3.60;;;22.80;37.80;;;;;;6277460;27;82038;-68
2023/03/05 05:41:38;;;;;;;7.20;4.30;;;22.80;38.00;;;;;;6289531;27;80204;-69
2023/03/05 05:44:38;;;;;;;5.82;3.40;;;22.90;38.30;;;;;;6269647;27;81531;-67
2023/03/05 05:47:39;;;;;;;5.20;3.13;;;22.90;38.60;;;;;;6252581;27;85066;-71
2023/03/05 05:50:40;;;;;;;7.90;3.85;;;22.90;38.80;;;;;;6265686;27;80910;-66
2023/03/05 05:53:41;;;;;;;11.38;4.20;;;22.90;38.80;;;;;;6261484;27;80425;-63
2023/03/05 05:56:41;;;;;;;6.78;3.67;;;22.80;38.80;;;;;;6258150;27;80881;-67
2023/03/05 05:59:42;;;;;;;7.05;4.55;;;22.80;38.50;;;;;;6255189;27;80401;-69
2023/03/05 06:02:42;;;;;;;6.50;3.78;;;22.80;38.90;;;;;;6251088;27;80935;-69
2023/03/05 06:05:43;;;;;;;7.43;4.28;;;22.80;39.00;;;;;;6269143;27;80714;-68
2023/03/05 06:08:43;;;;;;;6.50;3.70;;;22.80;39.20;;;;;;6273240;27;80553;-66
2023/03/05 06:11:44;;;;;;;7.75;4.20;;;22.80;39.00;;;;;;6271612;27;85147;-57
2023/03/05 06:14:45;;;;;;;6.05;3.30;;;22.80;38.90;;;;;;6278306;27;80675;-55
2023/03/05 06:17:46;;;;;;;6.20;3.40;;;22.80;38.90;;;;;;6262711;27;80958;-52
2023/03/05 06:20:47;;;;;;;5.10;3.47;;;22.80;39.20;;;;;;6270557;27;81337;-53
2023/03/05 06:23:47;;;;;;;5.45;3.50;;;22.80;39.40;;;;;;6274080;27;80416;-50
2023/03/05 06:26:48;;;;;;;7.32;3.80;;;22.80;38.80;;;;;;6270888;27;81014;-61
2023/03/05 06:29:48;;;;;;;9.52;3.83;;;22.80;39.20;;;;;;6252150;27;81122;-52
2023/03/05 06:32:49;;;;;;;8.57;3.88;;;22.70;39.00;;;;;;6269723;27;80969;-52
2023/03/05 06:35:49;;;;;;;12.63;4.28;;;22.70;39.70;;;;;;6268539;27;80891;-59
2023/03/05 06:38:50;;;;;;;6.20;3.63;;;22.70;40.60;;;;;;6258685;27;86762;-58
2023/03/05 06:41:51;;;;;;;7.47;3.50;;;22.70;42.00;;;;;;6261834;27;80846;-55
2023/03/05 06:44:51;;;;;;;6.03;3.85;;;22.70;41.70;;;;;;6267636;27;81696;-55
2023/03/05 06:47:52;;;;;;;9.32;3.85;;;22.70;41.40;;;;;;6241487;28;81174;-56
2023/03/05 06:50:52;;;;;;;6.00;3.67;;;22.70;41.50;;;;;;6265522;27;81861;-55
2023/03/05 06:53:53;;;;;;;8.82;3.42;;;22.70;41.80;;;;;;6259950;27;81122;-56
2023/03/05 06:56:53;;;;;;;7.63;3.90;;;22.70;42.20;;;;;;6243656;27;82653;-57
2023/03/05 06:59:54;;;;;;;6.75;3.78;;;22.70;42.80;;;;;;6237128;27;80790;-58
2023/03/05 07:02:54;;;;;;;8.23;4.05;;;22.60;41.90;;;;;;6258823;27;80938;-58
2023/03/05 07:05:55;;;;;;;11.43;4.28;;;22.60;42.50;;;;;;6265525;27;81040;-57
2023/03/05 07:08:56;;;;;;;8.50;4.35;;;22.60;43.30;;;;;;6264860;27;80652;-55
2023/03/05 07:11:56;;;;;;;7.65;3.88;;;22.70;43.40;;;;;;6261614;27;81415;-57
2023/03/05 07:14:57;;;;;;;9.68;4.15;;;22.70;43.30;;;;;;6262327;27;84986;-56
2023/03/05 07:17:57;;;;;;;9.77;4.10;;;22.60;43.40;;;;;;6272520;27;80646;-57
2023/03/05 07:20:58;;;;;;;7.28;4.03;;;22.70;44.30;;;;;;6271173;27;80883;-58
2023/03/05 07:23:58;;;;;;;5.97;3.50;;;22.60;44.20;;;;;;6265702;27;80543;-56
2023/03/05 07:26:59;;;;;;;7.30;4.05;;;22.70;44.20;;;;;;6263911;27;80586;-55
2023/03/05 07:29:59;;;;;;;6.20;3.80;;;22.70;44.30;;;;;;6267988;27;82108;-58
2023/03/05 07:33:01;;;;;;;10.45;4.35;;;22.60;44.20;;;;;;6262150;27;80340;-57
2023/03/05 07:36:03;;;;;;;8.75;4.30;;;22.70;43.90;;;;;;6259833;27;81364;-55
2023/03/05 07:39:04;;;;;;;5.95;3.90;;;22.70;43.60;;;;;;6247842;27;87190;-56
2023/03/05 07:42:04;;;;;;;7.32;4.55;;;22.70;43.40;;;;;;6266555;27;80967;-58
2023/03/05 07:45:22;;;;;;;7.45;3.90;;;22.70;43.30;;;;;;6239741;27;83903;-55
2023/03/05 07:48:22;;;;;;;6.60;3.55;;;22.70;43.20;;;;;;6261963;27;81683;-57
2023/03/05 07:51:23;;;;;;;8.63;3.80;;;22.70;43.30;;;;;;6266143;27;87914;-64
2023/03/05 07:54:23;;;;;;;6.75;3.78;;;22.70;43.10;;;;;;6257450;27;80651;-58
2023/03/05 07:57:24;;;;;;;8.85;4.05;;;22.60;43.00;;;;;;6263532;27;81088;-57
2023/03/05 08:00:24;;;;;;;7.97;4.03;;;22.60;42.30;;;;;;6256276;27;85525;-57
2023/03/05 08:03:25;;;;;;;6.03;3.30;;;22.60;43.50;;;;;;6260814;27;85661;-58
2023/03/05 08:06:25;;;;;;;5.07;3.47;;;22.60;43.00;;;;;;6265492;27;85130;-57
2023/03/05 08:09:26;;;;;;;8.40;4.22;;;22.60;43.10;;;;;;6260103;27;80216;-59
2023/03/05 08:12:26;;;;;;;6.68;3.70;;;22.60;42.70;;;;;;6258923;27;80231;-58
2023/03/05 08:15:27;;;;;;;7.47;3.45;;;22.50;42.60;;;;;;6260398;27;80724;-57
2023/03/05 08:18:27;;;;;;;5.53;3.20;;;22.50;42.90;;;;;;6258538;27;85578;-57
2023/03/05 08:21:28;;;;;;;5.55;3.45;;;22.50;43.70;;;;;;6252920;27;81825;-57
2023/03/05 08:24:29;;;;;;;5.53;3.50;;;22.50;43.70;;;;;;6253595;27;80755;-57
2023/03/05 08:27:29;;;;;;;5.20;3.53;;;22.50;43.90;;;;;;6267089;27;80507;-60
2023/03/05 08:30:30;;;;;;;7.13;3.90;;;22.50;43.00;;;;;;6260190;27;83094;-53
2023/03/05 08:33:30;;;;;;;7.50;3.55;;;22.50;42.50;;;;;;6255071;27;84057;-60
2023/03/05 08:36:31;;;;;;;8.20;3.88;;;22.50;43.70;;;;;;6262724;27;80742;-53
2023/03/05 08:39:32;;;;;;;5.88;3.90;;;22.40;42.80;;;;;;6251400;27;81190;-52
2023/03/05 08:42:32;;;;;;;7.88;4.47;;;22.40;42.90;;;;;;6257576;27;80577;-51
2023/03/05 08:45:33;;;;;;;11.70;5.70;;;22.40;42.70;;;;;;6256045;27;81612;-52
2023/03/05 08:48:33;;;;;;;9.65;5.20;;;22.40;42.70;;;;;;6257546;27;81618;-50
2023/03/05 08:51:35;;;;;;;8.60;4.45;;;22.40;42.70;;;;;;6260167;27;80645;-57
2023/03/05 08:54:35;;;;;;;8.80;4.57;;;22.40;42.60;;;;;;6264435;27;82510;-65
2023/03/05 08:57:36;;;;;;;7.40;4.35;;;22.40;42.70;;;;;;6256808;27;80490;-54
2023/03/05 09:00:37;;;;;;;9.07;4.82;;;22.40;42.70;;;;;;6270337;27;80712;-57
2023/03/05 09:03:37;;;;;;;9.48;4.18;;;22.40;42.80;;;;;;6264289;27;80411;-54
2023/03/05 09:06:39;;;;;;;14.43;4.45;;;22.40;43.20;;;;;;6257059;27;80578;-53
2023/03/05 09:09:39;;;;;;;8.57;4.35;;;22.50;43.00;;;;;;6259214;27;80234;-55
2023/03/05 09:12:40;;;;;;;8.10;4.25;;;22.50;43.90;;;;;;6266031;27;83577;-52
2023/03/05 09:15:40;;;;;;;8.68;4.10;;;22.50;44.30;;;;;;6263311;27;80466;-72
2023/03/05 09:18:41;;;;;;;9.35;4.00;;;22.60;44.20;;;;;;6253076;27;81845;-70
2023/03/05 09:21:42;;;;;;;7.13;3.90;;;22.60;44.40;;;;;;6254594;27;80377;-69
2023/03/05 09:24:42;;;;;;;6.07;3.20;;;22.60;44.10;;;;;;6255187;27;85144;-64
2023/03/05 09:27:44;;;;;;;7.32;3.33;;;22.60;43.90;;;;;;6264622;27;81971;-70
2023/03/05 09:30:44;;;;;;;7.28;3.83;;;22.60;43.80;;;;;;6259607;27;81326;-68
2023/03/05 09:33:45;;;;;;;7.78;2.95;;;22.60;43.80;;;;;;6265550;27;80498;-69
2023/03/05 09:36:45;;;;;;;6.57;3.33;;;22.60;44.10;;;;;;6263893;27;80967;-67
2023/03/05 09:39:46;;;;;;;8.57;3.97;;;22.60;44.10;;;;;;6261962;27;80957;-68
2023/03/05 09:42:46;;;;;;;6.00;3.30;;;22.60;44.00;;;;;;6260912;27;81585;-67
2023/03/05 09:45:47;;;;;;;8.52;3.65;;;22.70;43.90;;;;;;6263478;27;82731;-67
2023/03/05 09:48:48;;;;;;;7.07;3.67;;;22.70;43.90;;;;;;6262930;27;85166;-58
2023/03/05 09:51:48;;;;;;;7.20;4.43;;;22.70;44.00;;;;;;6266401;27;80918;-65
2023/03/05 09:54:49;;;;;;;9.18;4.05;;;22.70;43.90;;;;;;6265581;27;81493;-68
2023/03/05 09:57:49;;;;;;;8.07;4.80;;;22.70;43.90;;;;;;6261493;27;80531;-70
2023/03/05 10:00:50;;;;;;;7.63;4.28;;;22.70;44.10;;;;;;6251414;27;84638;-67
2023/03/05 10:03:50;;;;;;;7.75;4.05;;;22.80;44.20;;;;;;6247513;27;81432;-66
2023/03/05 10:06:51;;;;;;;5.63;4.28;;;22.70;43.80;;;;;;6229045;27;82043;-66
2023/03/05 10:09:51;;;;;;;7.18;3.90;;;22.80;43.80;;;;;;6246957;27;82113;-62
2023/03/05 10:12:52;;;;;;;6.75;4.22;;;22.80;43.60;;;;;;6229452;27;81285;-68
2023/03/05 10:15:53;;;;;;;6.40;3.97;;;22.80;43.20;;;;;;6237237;27;86848;-66
2023/03/05 10:18:53;;;;;;;7.53;3.72;;;22.80;43.20;;;;;;6248565;27;81476;-66
2023/03/05 10:21:54;;;;;;;5.15;3.78;;;22.80;43.30;;;;;;6244825;27;81241;-68
2023/03/05 10:24:54;;;;;;;7.72;4.05;;;22.70;43.10;;;;;;6251390;27;82336;-66
2023/03/05 10:27:55;;;;;;;7.72;4.32;;;22.70;43.70;;;;;;6254393;27;81059;-64
2023/03/05 10:30:55;;;;;;;6.15;4.22;;;22.70;43.80;;;;;;6248231;27;81624;-66
2023/03/05 10:33:56;;;;;;;6.63;4.28;;;22.70;45.70;;;;;;6248363;27;82461;-60
2023/03/05 10:36:56;;;;;;;8.30;5.40;;;22.80;44.50;;;;;;6234593;27;81169;-71
2023/03/05 10:39:57;;;;;;;8.18;5.30;;;22.80;48.10;;;;;;6252608;27;84382;-63
2023/03/05 10:42:58;;;;;;;8.38;4.95;;;22.80;47.30;;;;;;6248250;27;82397;-66
2023/03/05 10:45:58;;;;;;;12.43;5.25;;;22.90;47.00;;;;;;6251389;27;80651;-64
2023/03/05 10:48:59;;;;;;;13.60;5.90;;;22.90;46.70;;;;;;6253204;27;82103;-54
2023/03/05 10:51:59;;;;;;;15.25;6.72;;;22.80;48.50;;;;;;6244191;27;81474;-54
2023/03/05 10:55:00;;;;;;;15.73;6.22;;;22.80;48.00;;;;;;6250324;27;88417;-53
2023/03/05 10:58:00;;;;;;;12.25;5.63;;;22.80;48.40;;;;;;6252462;27;81329;-54
2023/03/05 11:01:01;;;;;;;13.15;5.82;;;22.80;48.10;;;;;;6250434;27;85087;-56
2023/03/05 11:04:05;;;;;;;11.32;4.93;;;22.80;48.50;;;;;;6249887;27;82221;-54
2023/03/05 11:07:05;;;;;;;10.77;5.88;;;22.80;47.80;;;;;;6260007;27;83323;-55
2023/03/05 11:10:06;;;;;;;12.02;5.75;;;22.80;47.60;;;;;;6270600;27;81598;-53
2023/03/05 11:13:06;;;;;;;10.95;5.30;;;22.70;47.20;;;;;;6266195;27;84962;-56
2023/03/05 11:16:07;;;;;;;11.27;5.32;;;22.70;46.90;;;;;;6247416;27;81133;-55
2023/03/05 11:19:08;;;;;;;9.15;4.43;;;22.70;46.40;;;;;;6271680;27;87592;-48
2023/03/05 11:22:09;;;;;;;14.00;4.80;;;22.70;46.10;;;;;;6268485;27;80628;-54
2023/03/05 11:25:11;;;;;;;12.27;5.32;;;22.70;45.90;;;;;;6261485;27;81516;-65
2023/03/05 11:28:11;;;;;;;11.32;5.13;;;22.70;45.70;;;;;;6259097;27;81976;-66
2023/03/05 11:31:12;;;;;;;12.70;5.05;;;22.70;46.10;;;;;;6268433;27;80204;-66
2023/03/05 11:34:12;;;;;;;9.30;4.93;;;22.70;45.80;;;;;;6270855;27;81698;-74
2023/03/05 11:37:13;;;;;;;9.25;5.13;;;22.70;45.80;;;;;;6273314;27;81197;-63
2023/03/05 11:40:14;;;;;;;8.10;4.82;;;22.70;45.40;;;;;;6268932;27;80489;-61
2023/03/05 11:43:14;;;;;;;11.10;4.15;;;22.70;45.60;;;;;;6258882;27;83297;-65
2023/03/05 11:46:15;;;;;;;8.70;4.55;;;22.70;45.30;;;;;;6269403;27;81471;-64
2023/03/05 11:49:15;;;;;;;11.55;5.13;;;22.70;45.30;;;;;;6264778;27;85127;-65
2023/03/05 11:52:16;;;;;;;9.80;3.90;;;22.70;45.30;;;;;;6251763;27;86425;-63
2023/03/05 11:55:16;;;;;;;5.38;3.97;;;22.70;45.40;;;;;;6249036;27;81498;-64
2023/03/05 11:58:17;;;;;;;8.38;3.83;;;22.60;45.20;;;;;;6268778;27;82053;-60
2023/03/05 12:01:17;;;;;;;8.38;3.83;;;22.60;44.80;;;;;;6264722;27;86539;-61
2023/03/05 12:04:18;;;;;;;8.43;3.42;;;22.60;45.00;;;;;;6240125;27;82881;-60
2023/03/05 12:07:19;;;;;;;8.48;4.00;;;22.60;45.20;;;;;;6244535;27;83558;-60
2023/03/05 12:10:19;;;;;;;8.43;4.15;;;22.60;45.00;;;;;;6257603;27;82049;-65
2023/03/05 12:13:20;;;;;;;7.95;3.92;;;22.50;45.20;;;;;;6268486;27;82796;-63
2023/03/05 12:16:23;;;;;;;5.57;3.35;;;22.60;45.80;;;;;;6262520;27;80145;-63
2023/03/05 12:19:23;;;;;;;6.00;3.80;;;22.60;45.30;;;;;;6267825;27;81100;-57
2023/03/05 12:22:24;;;;;;;8.63;4.07;;;22.50;44.50;;;;;;6256777;27;83464;-52
2023/03/05 12:25:24;;;;;;;7.43;3.60;;;22.50;45.00;;;;;;6271999;27;80591;-53
2023/03/05 12:28:25;;;;;;;8.65;4.07;;;22.50;44.10;;;;;;6266766;27;80348;-50
2023/03/05 12:31:25;;;;;;;6.93;3.70;;;22.50;44.70;;;;;;6265177;27;80955;-64
2023/03/05 12:34:26;;;;;;;5.15;3.08;;;22.50;44.60;;;;;;6263362;27;80533;-51
2023/03/05 12:37:26;;;;;;;5.15;3.03;;;22.50;45.60;;;;;;6262912;27;81084;-52
2023/03/05 12:40:27;;;;;;;6.60;3.15;;;22.50;45.60;;;;;;6261398;27;82378;-54
2023/03/05 12:43:27;;;;;;;5.22;2.70;;;22.50;45.10;;;;;;6261321;27;81523;-52
2023/03/05 12:46:28;;;;;;;10.55;3.55;;;22.50;45.20;;;;;;6255454;27;81482;-52
2023/03/05 12:49:29;;;;;;;6.20;3.38;;;22.60;45.30;;;;;;6258250;27;80457;-53
2023/03/05 12:52:29;;;;;;;5.20;2.85;;;22.60;44.90;;;;;;6264781;27;80905;-56
2023/03/05 12:55:32;;;;;;;7.80;3.30;;;22.60;44.70;;;;;;6261212;27;80338;-56
2023/03/05 12:58:32;;;;;;;6.90;2.88;;;22.60;44.90;;;;;;6262813;27;82523;-55
2023/03/05 13:01:33;;;;;;;5.07;2.60;;;22.50;45.20;;;;;;6252209;27;81724;-54
2023/03/05 13:04:34;;;;;;;5.95;3.05;;;22.50;45.50;;;;;;6262441;27;80029;-54
2023/03/05 13:07:35;;;;;;;4.22;2.38;;;22.50;45.50;;;;;;6261949;27;80663;-54
2023/03/05 13:10:35;;;;;;;6.63;2.90;;;22.50;45.50;;;;;;6254665;27;80730;-52
2023/03/05 13:13:36;;;;;;;4.18;2.58;;;22.50;45.70;;;;;;6258284;27;80995;-53
2023/03/05 13:16:37;;;;;;;6.00;3.17;;;22.50;45.00;;;;;;6268242;27;80924;-54
2023/03/05 13:19:37;;;;;;;14.77;3.97;;;22.50;44.70;;;;;;6257382;27;81033;-55
2023/03/05 13:22:38;;;;;;;7.43;2.92;;;22.50;44.60;;;;;;6275153;27;81545;-53
2023/03/05 13:25:38;;;;;;;4.78;2.75;;;22.50;44.30;;;;;;6270768;27;81856;-52
2023/03/05 13:28:40;;;;;;;9.25;2.53;;;22.50;45.00;;;;;;6267857;27;80156;-51
2023/03/05 13:31:41;;;;;;;4.50;2.45;;;22.50;44.90;;;;;;6274268;27;82671;-64
2023/03/05 13:34:41;;;;;;;5.10;3.17;;;22.50;45.30;;;;;;6266016;27;80210;-52
2023/03/05 13:37:42;;;;;;;16.23;3.72;;;22.50;45.10;;;;;;6259593;27;80568;-55
2023/03/05 13:40:42;;;;;;;9.38;3.08;;;22.50;45.50;;;;;;6259111;27;80836;-55
2023/03/05 13:43:43;;;;;;;5.05;2.90;;;22.50;45.20;;;;;;6272344;27;80367;-56
2023/03/05 13:46:43;;;;;;;7.30;3.83;;;22.40;45.00;;;;;;6256911;27;85658;-55
2023/03/05 13:49:46;;;;;;;6.95;3.38;;;22.50;44.90;;;;;;6269714;27;82186;-59
2023/03/05 13:52:46;;;;;;;7.43;3.28;;;22.50;44.80;;;;;;6259439;27;87210;-56
2023/03/05 13:55:47;;;;;;;10.05;3.90;;;22.50;44.40;;;;;;6255709;27;81499;-58
2023/03/05 13:58:47;;;;;;;8.38;3.47;;;22.50;45.00;;;;;;6265233;27;80778;-56
2023/03/05 14:01:48;;;;;;;6.75;3.75;;;22.40;45.00;;;;;;6269906;27;80527;-54
2023/03/05 14:04:48;;;;;;;11.45;3.35;;;22.50;44.80;;;;;;6267351;27;80353;-50
2023/03/05 14:07:49;;;;;;;10.65;3.83;;;22.50;44.60;;;;;;6262263;27;80538;-53
2023/03/05 14:10:49;;;;;;;9.35;4.22;;;22.50;44.50;;;;;;6274455;27;80215;-55
2023/03/05 14:13:50;;;;;;;7.55;4.25;;;22.60;44.10;;;;;;6262709;27;81429;-57
2023/03/05 14:16:50;;;;;;;8.90;4.43;;;22.70;44.30;;;;;;6267716;27;80567;-53
2023/03/05 14:19:51;;;;;;;7.35;4.13;;;22.80;44.50;;;;;;6274733;27;80517;-57
2023/03/05 14:22:52;;;;;;;12.15;4.32;;;22.90;44.20;;;;;;6267710;27;80572;-57
2023/03/05 14:25:53;;;;;;;9.70;3.72;;;22.90;44.30;;;;;;6254369;27;80787;-59
2023/03/05 14:28:53;;;;;;;12.60;4.07;;;22.90;44.40;;;;;;6272104;27;81737;-56
2023/03/05 14:31:54;;;;;;;7.70;3.92;;;22.90;44.30;;;;;;6265509;27;81924;-52
2023/03/05 14:34:55;;;;;;;10.63;4.30;;;22.80;44.00;;;;;;6275609;27;80397;-53
2023/03/05 14:37:55;;;;;;;11.85;4.10;;;22.80;44.20;;;;;;6273302;27;80680;-50
2023/03/05 14:40:56;;;;;;;11.57;3.90;;;22.90;44.10;;;;;;6279817;27;82066;-51
2023/03/05 14:43:57;;;;;;;9.77;3.85;;;22.80;44.20;;;;;;6265944;27;81709;-50
2023/03/05 14:46:57;;;;;;;8.32;4.00;;;22.90;44.00;;;;;;6263616;27;82797;-50
2023/03/05 14:49:58;;;;;;;7.68;4.13;;;22.80;44.00;;;;;;6260940;27;82180;-49
2023/03/05 14:52:58;;;;;;;10.48;4.65;;;22.80;43.80;;;;;;6265029;27;81709;-54
2023/03/05 14:55:59;;;;;;;8.40;4.18;;;22.80;43.90;;;;;;6263112;27;81304;-49
2023/03/05 14:58:59;;;;;;;10.43;4.90;;;22.80;43.90;;;;;;6258855;27;82141;-56
2023/03/05 15:02:00;;;;;;;8.82;4.07;;;22.70;43.70;;;;;;6259872;27;80766;-50
2023/03/05 15:05:00;;;;;;;8.40;4.78;;;22.70;43.80;;;;;;6265497;27;80452;-58
2023/03/05 15:08:01;;;;;;;7.65;3.85;;;22.70;43.70;;;;;;6268216;27;80403;-57
2023/03/05 15:11:02;;;;;;;7.95;4.18;;;22.70;43.80;;;;;;6255709;27;81698;-57
2023/03/05 15:14:03;;;;;;;8.00;3.72;;;22.70;43.80;;;;;;6255300;27;81586;-59
2023/03/05 15:17:03;;;;;;;10.15;3.63;;;22.70;43.80;;;;;;6249248;27;81095;-61
2023/03/05 15:20:08;;;;;;;7.05;3.60;;;22.70;43.80;;;;;;6259929;27;80682;-61
2023/03/05 15:23:10;;;;;;;9.10;4.23;;;22.70;43.90;;;;;;6264789;27;80618;-65
2023/03/05 15:26:11;;;;;;;7.68;3.83;;;22.70;44.00;;;;;;6259319;27;81209;-60
2023/03/05 15:29:11;;;;;;;6.97;3.78;;;22.70;43.90;;;;;;6264509;27;81258;-60
2023/03/05 15:32:12;;;;;;;8.90;4.18;;;22.70;43.70;;;;;;6260538;27;85522;-59
2023/03/05 15:35:12;;;;;;;7.05;3.80;;;22.70;43.50;;;;;;6253264;27;83619;-59
2023/03/05 15:38:14;;;;;;;11.32;3.60;;;22.70;43.40;;;;;;6261768;27;80430;-59